Time;durP1;ratioP1;P1;durP2;ratioP2;P2;SDS_P1;SDS_P2;PMS_P1;PMS_P2;Temp;Humidity;BMP_temperature;BMP_pressure;BME280_temperature;BME280_humidity;BME280_pressure;Samples;Min_cycle;Max_cycle;Signal;HPM_P1;HPM_P2
2021/01/20 00:00:27;;;;;;;32.55;29.08;;;20.80;46.30;;;;;;5092191;28;20032;-56
2021/01/20 00:02:53;;;;;;;31.35;28.05;;;20.80;46.30;;;;;;5092362;28;20031;-56
2021/01/20 00:05:19;;;;;;;33.72;28.92;;;20.80;46.30;;;;;;5092206;28;20374;-56
2021/01/20 00:07:45;;;;;;;30.77;27.27;;;20.70;46.30;;;;;;5092041;28;20031;-55
2021/01/20 00:10:12;;;;;;;31.70;26.85;;;20.70;46.30;;;;;;5091578;28;20020;-57
2021/01/20 00:12:39;;;;;;;28.40;25.50;;;20.70;46.30;;;;;;5091809;28;20020;-57
2021/01/20 00:15:05;;;;;;;28.90;25.77;;;20.70;46.40;;;;;;5091693;28;20028;-57
2021/01/20 00:17:32;;;;;;;26.73;23.92;;;20.70;46.40;;;;;;5090321;28;20023;-57
2021/01/20 00:19:58;;;;;;;28.30;25.35;;;20.70;46.40;;;;;;5092627;28;20051;-52
2021/01/20 00:22:28;;;;;;;28.42;25.38;;;20.60;46.30;;;;;;5092753;28;20059;-52
2021/01/20 00:24:54;;;;;;;27.50;24.13;;;20.60;46.30;;;;;;5092759;28;20377;-52
2021/01/20 00:27:21;;;;;;;26.27;23.48;;;20.60;46.30;;;;;;5091518;28;20055;-52
2021/01/20 00:29:47;;;;;;;26.40;23.63;;;20.60;46.40;;;;;;5092737;28;20027;-52
2021/01/20 00:32:13;;;;;;;25.33;22.60;;;20.60;46.40;;;;;;5092732;28;20028;-52
2021/01/20 00:34:40;;;;;;;26.30;22.67;;;20.50;46.40;;;;;;5091302;28;20562;-52
2021/01/20 00:37:06;;;;;;;25.85;22.75;;;20.50;46.50;;;;;;5092527;28;20028;-52
2021/01/20 00:39:32;;;;;;;24.27;21.35;;;20.60;46.60;;;;;;5074686;28;20035;-52
2021/01/20 00:41:58;;;;;;;24.23;21.08;;;20.50;46.60;;;;;;5092849;28;20024;-52
2021/01/20 00:44:24;;;;;;;25.08;21.77;;;20.50;46.60;;;;;;5091703;28;20035;-52
2021/01/20 00:46:50;;;;;;;21.77;19.30;;;20.50;46.70;;;;;;5091757;28;20077;-52
2021/01/20 00:49:17;;;;;;;23.48;18.75;;;20.50;46.70;;;;;;5092870;28;20048;-52
2021/01/20 00:51:43;;;;;;;22.38;19.52;;;20.50;46.70;;;;;;5091912;28;20066;-52
2021/01/20 00:54:10;;;;;;;22.92;20.13;;;20.50;46.80;;;;;;5091766;28;20058;-52
2021/01/20 00:56:36;;;;;;;21.30;18.83;;;20.40;46.80;;;;;;5091840;28;20026;-51
2021/01/20 00:59:02;;;;;;;21.30;18.65;;;20.40;46.80;;;;;;5074707;28;20067;-52
2021/01/20 01:01:29;;;;;;;20.45;18.08;;;20.40;46.80;;;;;;5092518;28;20056;-52
2021/01/20 01:03:55;;;;;;;20.02;17.83;;;20.40;46.80;;;;;;5076908;28;20097;-52
2021/01/20 01:06:21;;;;;;;21.52;18.05;;;20.40;46.90;;;;;;5094776;28;20488;-52
2021/01/20 01:08:48;;;;;;;19.77;17.17;;;20.40;46.90;;;;;;5095141;28;20469;-52
2021/01/20 01:11:14;;;;;;;19.58;17.42;;;20.40;46.90;;;;;;5096156;28;20111;-52
2021/01/20 01:13:51;;;;;;;20.48;16.88;;;20.40;47.00;;;;;;5093278;28;20028;-51
2021/01/20 01:16:35;;;;;;;19.70;17.23;;;20.40;47.00;;;;;;5095213;28;20093;-52
2021/01/20 01:19:03;;;;;;;18.50;16.42;;;20.40;47.00;;;;;;5094749;28;20115;-52
2021/01/20 01:21:29;;;;;;;19.42;15.93;;;20.40;47.00;;;;;;5094521;28;20035;-52
2021/01/20 01:23:55;;;;;;;18.85;16.90;;;20.40;47.10;;;;;;5094691;28;20016;-52
2021/01/20 01:26:21;;;;;;;17.10;15.40;;;20.40;47.00;;;;;;5094715;28;20024;-52
2021/01/20 01:28:48;;;;;;;18.77;16.85;;;20.30;47.10;;;;;;5077473;28;20020;-52
2021/01/20 01:31:33;;;;;;;20.80;15.80;;;20.40;47.10;;;;;;5078900;28;20043;-56
2021/01/20 01:33:59;;;;;;;17.35;15.38;;;20.30;47.10;;;;;;5093174;28;20097;-56
2021/01/20 01:36:28;;;;;;;18.77;14.60;;;20.30;47.10;;;;;;5095494;28;20111;-51
2021/01/20 01:38:56;;;;;;;15.90;14.27;;;20.30;47.10;;;;;;5094378;28;20028;-52
2021/01/20 01:41:30;;;;;;;17.83;15.23;;;20.30;47.10;;;;;;5092583;28;20366;-52
2021/01/20 01:44:02;;;;;;;16.92;14.48;;;20.30;47.10;;;;;;5095803;28;20028;-52
2021/01/20 01:46:37;;;;;;;18.30;15.35;;;20.30;47.10;;;;;;5094183;28;20024;-52
2021/01/20 01:49:25;;;;;;;15.23;13.45;;;20.30;47.10;;;;;;5091806;28;20056;-54
2021/01/20 01:51:54;;;;;;;16.85;13.63;;;20.30;47.10;;;;;;5093904;28;20031;-51
2021/01/20 01:54:44;;;;;;;15.02;13.25;;;20.30;47.10;;;;;;5094985;28;20020;-51
2021/01/20 01:57:30;;;;;;;14.93;13.00;;;20.30;47.10;;;;;;5084611;28;20575;-52
2021/01/20 01:59:58;;;;;;;15.30;13.57;;;20.30;47.10;;;;;;5093724;28;20122;-50
2021/01/20 02:02:40;;;;;;;14.52;13.02;;;20.20;47.10;;;;;;5093137;28;20032;-50
2021/01/20 02:05:10;;;;;;;14.57;12.88;;;20.30;47.20;;;;;;5092093;28;20077;-50
2021/01/20 02:07:44;;;;;;;14.60;13.02;;;20.20;47.10;;;;;;5093432;28;20070;-50
2021/01/20 02:10:11;;;;;;;14.93;12.93;;;20.20;47.10;;;;;;5092516;28;20059;-50
2021/01/20 02:12:52;;;;;;;13.32;11.93;;;20.20;47.10;;;;;;5094146;28;20359;-50
2021/01/20 02:15:57;;;;;;;17.27;13.35;;;20.20;47.70;;;;;;5092937;28;20042;-50
2021/01/20 02:18:27;;;;;;;15.05;12.20;;;20.20;47.00;;;;;;5075238;28;20044;-50
2021/01/20 02:21:22;;;;;;;14.15;12.52;;;20.20;47.00;;;;;;5093824;28;20470;-50
2021/01/20 02:24:11;;;;;;;13.07;11.68;;;20.20;47.00;;;;;;5093619;28;20036;-50
2021/01/20 02:26:55;;;;;;;12.80;11.40;;;20.20;46.90;;;;;;5092469;28;20051;-50
2021/01/20 02:29:35;;;;;;;;;;;20.10;46.80;;;;;;5092530;28;20042;-50
2021/01/20 02:32:26;;;;;;;13.45;11.98;;;20.10;46.90;;;;;;5093641;28;19912;-50
2021/01/20 02:34:54;;;;;;;12.38;11.07;;;20.20;46.70;;;;;;5092137;28;20055;-50
2021/01/20 02:37:22;;;;;;;14.65;11.95;;;20.20;46.70;;;;;;5092365;28;20122;-50
2021/01/20 02:40:08;;;;;;;13.30;11.60;;;20.10;46.70;;;;;;5093285;28;20081;-50
2021/01/20 02:42:51;;;;;;;12.52;11.10;;;20.10;46.70;;;;;;5092051;28;20094;-50
2021/01/20 02:45:27;;;;;;;12.52;10.93;;;20.10;47.40;;;;;;5092441;28;20085;-51
2021/01/20 02:47:56;;;;;;;14.05;11.52;;;20.10;46.80;;;;;;5075474;28;20107;-51
2021/01/20 02:50:23;;;;;;;13.30;11.02;;;20.00;46.80;;;;;;5092023;28;20390;-52
2021/01/20 02:53:15;;;;;;;13.77;11.95;;;20.10;46.80;;;;;;5091997;28;20081;-49
2021/01/20 02:56:00;;;;;;;14.13;10.85;;;20.00;46.80;;;;;;5093309;28;20060;-50
2021/01/20 02:58:46;;;;;;;11.65;10.40;;;20.00;46.80;;;;;;5093348;28;20034;-49
2021/01/20 03:01:42;;;;;;;11.57;10.48;;;20.00;46.70;;;;;;5091668;28;20028;-49
2021/01/20 03:04:10;;;;;;;13.00;10.52;;;20.00;46.70;;;;;;5093406;28;20115;-50
2021/01/20 03:06:37;;;;;;;12.70;11.07;;;20.00;46.80;;;;;;5092877;28;20035;-50
2021/01/20 03:09:04;;;;;;;12.35;10.55;;;20.00;46.70;;;;;;5093244;28;20485;-51
2021/01/20 03:11:29;;;;;;;10.63;9.65;;;19.90;46.70;;;;;;5093202;28;20099;-51
2021/01/20 03:13:56;;;;;;;11.43;10.23;;;19.90;46.70;;;;;;5093019;28;20540;-50
2021/01/20 03:16:28;;;;;;;11.68;10.48;;;19.90;46.70;;;;;;5092960;28;20028;-50
2021/01/20 03:18:53;;;;;;;12.73;10.27;;;20.00;46.80;;;;;;5093155;28;20039;-50
2021/01/20 03:21:21;;;;;;;11.82;9.50;;;19.90;46.70;;;;;;5092666;28;20020;-51
2021/01/20 03:23:47;;;;;;;10.88;9.57;;;19.90;46.70;;;;;;5092658;28;20024;-51
2021/01/20 03:26:13;;;;;;;11.38;9.52;;;19.90;46.70;;;;;;5092585;28;20036;-50
2021/01/20 03:28:39;;;;;;;11.85;10.32;;;19.90;46.70;;;;;;5092850;28;20115;-51
2021/01/20 03:31:05;;;;;;;12.70;10.23;;;19.90;46.70;;;;;;5091488;28;20115;-51
2021/01/20 03:33:31;;;;;;;13.82;9.40;;;19.90;46.60;;;;;;5092422;28;20388;-50
2021/01/20 03:35:57;;;;;;;11.65;10.45;;;19.90;46.60;;;;;;5092462;28;20059;-51
2021/01/20 03:38:22;;;;;;;11.00;9.93;;;19.80;46.60;;;;;;5092580;28;20040;-50
2021/01/20 03:40:48;;;;;;;10.45;9.45;;;19.80;46.60;;;;;;5092253;28;20482;-50
2021/01/20 03:43:14;;;;;;;10.82;9.50;;;19.80;46.60;;;;;;5107991;28;20107;-51
2021/01/20 03:45:40;;;;;;;12.25;9.85;;;19.80;46.60;;;;;;5092290;28;20377;-52
2021/01/20 03:48:06;;;;;;;11.82;10.30;;;19.80;46.60;;;;;;5092723;28;20122;-49
2021/01/20 03:50:32;;;;;;;12.73;9.25;;;19.80;46.60;;;;;;5092441;28;20047;-51
2021/01/20 03:52:58;;;;;;;12.48;10.15;;;19.80;46.50;;;;;;5092217;28;20651;-51
2021/01/20 03:55:24;;;;;;;11.32;9.77;;;19.80;46.50;;;;;;5092404;28;20059;-50
2021/01/20 03:57:50;;;;;;;11.50;10.23;;;19.70;46.50;;;;;;5092376;28;20044;-49
2021/01/20 04:00:17;;;;;;;10.68;9.40;;;19.70;46.50;;;;;;5091851;28;20420;-49
2021/01/20 04:02:43;;;;;;;11.60;10.40;;;19.70;46.50;;;;;;5092012;28;20036;-51
2021/01/20 04:05:19;;;;;;;11.60;10.35;;;19.70;46.40;;;;;;5090685;28;20059;-50
2021/01/20 04:07:45;;;;;;;11.75;9.88;;;19.70;46.40;;;;;;5091988;28;20055;-50
2021/01/20 04:10:13;;;;;;;11.40;10.13;;;19.70;46.40;;;;;;5091896;28;20102;-50
2021/01/20 04:12:40;;;;;;;12.27;10.43;;;19.70;46.40;;;;;;5092039;28;20107;-50
2021/01/20 04:15:08;;;;;;;11.35;10.10;;;19.70;46.40;;;;;;5090854;28;20044;-50
2021/01/20 04:17:35;;;;;;;11.38;9.80;;;19.70;46.40;;;;;;5091893;28;20367;-50
2021/01/20 04:20:03;;;;;;;13.75;10.68;;;19.70;46.40;;;;;;5091590;28;20073;-50
2021/01/20 04:22:29;;;;;;;11.18;9.90;;;19.70;46.40;;;;;;5091880;28;20058;-51
2021/01/20 04:24:55;;;;;;;12.45;9.93;;;19.70;46.40;;;;;;5091753;28;20024;-50
2021/01/20 04:27:21;;;;;;;16.33;11.15;;;19.60;46.30;;;;;;5091733;28;20024;-50
2021/01/20 04:29:47;;;;;;;10.98;9.57;;;19.60;46.30;;;;;;5091774;28;20060;-50
2021/01/20 04:32:13;;;;;;;13.25;9.50;;;19.60;46.30;;;;;;5107487;28;20044;-50
2021/01/20 04:34:39;;;;;;;12.50;9.98;;;19.60;46.30;;;;;;5091673;28;20138;-51
2021/01/20 04:37:05;;;;;;;12.18;9.95;;;19.60;46.40;;;;;;5092413;28;20422;-50
2021/01/20 04:39:31;;;;;;;11.90;9.52;;;19.50;46.30;;;;;;5096335;28;20039;-51
2021/01/20 04:41:58;;;;;;;11.32;9.63;;;19.60;46.30;;;;;;5095613;28;20451;-51
2021/01/20 04:44:25;;;;;;;10.68;9.40;;;19.50;46.20;;;;;;5096388;28;20031;-50
2021/01/20 04:46:52;;;;;;;11.80;10.00;;;19.60;46.30;;;;;;5095598;28;20032;-50
2021/01/20 04:49:20;;;;;;;11.63;9.82;;;19.50;46.20;;;;;;5095692;28;20085;-50
2021/01/20 04:51:49;;;;;;;9.90;8.90;;;19.50;46.20;;;;;;5111652;28;20104;-50
2021/01/20 04:54:16;;;;;;;13.53;9.53;;;19.50;46.20;;;;;;5095742;28;20527;-50
2021/01/20 04:56:43;;;;;;;12.32;9.55;;;19.50;46.20;;;;;;5095500;28;20031;-51
2021/01/20 04:59:09;;;;;;;10.20;8.93;;;19.50;46.30;;;;;;5111201;28;20036;-50
2021/01/20 05:01:36;;;;;;;13.85;9.68;;;19.50;46.20;;;;;;5095525;28;20110;-50
2021/01/20 05:04:03;;;;;;;10.32;9.20;;;19.50;46.20;;;;;;5095523;28;20065;-50
2021/01/20 05:06:30;;;;;;;10.77;9.27;;;19.50;46.30;;;;;;5095458;28;20726;-50
2021/01/20 05:08:57;;;;;;;10.68;9.38;;;19.50;46.20;;;;;;5095553;28;20043;-50
2021/01/20 05:11:43;;;;;;;10.65;9.30;;;19.50;46.20;;;;;;5095580;28;20529;-50
2021/01/20 05:14:27;;;;;;;10.52;9.43;;;19.50;46.30;;;;;;5095037;28;20111;-50
2021/01/20 05:17:04;;;;;;;12.02;10.35;;;19.40;46.20;;;;;;5095234;28;20409;-50
2021/01/20 05:19:38;;;;;;;10.82;9.00;;;19.50;46.20;;;;;;5095001;28;20027;-50
2021/01/20 05:22:09;;;;;;;10.20;8.32;;;19.40;46.20;;;;;;5095085;28;20462;-50
2021/01/20 05:24:35;;;;;;;;;;;19.40;46.20;;;;;;5095346;28;20107;-50
2021/01/20 05:27:03;;;;;;;10.52;9.43;;;19.40;46.30;;;;;;5093761;28;19911;-50
2021/01/20 05:29:30;;;;;;;11.48;9.07;;;19.50;46.10;;;;;;5094038;28;20036;-54
2021/01/20 05:31:56;;;;;;;10.10;8.45;;;19.50;46.10;;;;;;5093478;28;20043;-53
2021/01/20 05:34:29;;;;;;;13.82;9.40;;;19.40;46.20;;;;;;5075263;28;20138;-54
2021/01/20 05:37:07;;;;;;;10.77;9.43;;;19.40;46.60;;;;;;5093323;28;20074;-54
2021/01/20 05:39:33;;;;;;;11.48;9.57;;;19.40;46.20;;;;;;5092658;28;20032;-53
2021/01/20 05:42:12;;;;;;;12.52;9.50;;;19.40;46.20;;;;;;5092640;28;20031;-50
2021/01/20 05:44:39;;;;;;;10.93;9.10;;;19.40;46.20;;;;;;5093147;28;20028;-54
2021/01/20 05:47:13;;;;;;;9.63;8.63;;;19.40;46.30;;;;;;5093475;28;20036;-52
2021/01/20 05:49:40;;;;;;;13.45;9.43;;;19.40;46.20;;;;;;5091063;28;20028;-52
2021/01/20 05:52:16;;;;;;;10.95;8.65;;;19.30;46.20;;;;;;5093174;28;20028;-53
2021/01/20 05:54:43;;;;;;;10.50;9.05;;;19.30;46.20;;;;;;5093191;28;20036;-53
2021/01/20 05:57:15;;;;;;;10.52;9.25;;;19.30;46.20;;;;;;5093185;28;20073;-53
2021/01/20 05:59:42;;;;;;;11.30;9.38;;;19.30;46.20;;;;;;5092238;28;20070;-53
2021/01/20 06:02:10;;;;;;;10.32;8.90;;;19.30;46.20;;;;;;5093394;28;20567;-54
2021/01/20 06:04:37;;;;;;;9.68;8.75;;;19.30;46.80;;;;;;5093389;28;20027;-53
2021/01/20 06:07:14;;;;;;;10.55;9.45;;;19.30;46.20;;;;;;5093390;28;20391;-53
2021/01/20 06:09:42;;;;;;;10.63;9.52;;;19.30;46.20;;;;;;5093014;28;20028;-52
2021/01/20 06:12:09;;;;;;;9.77;8.88;;;19.30;46.20;;;;;;5093053;28;20385;-54
2021/01/20 06:14:36;;;;;;;9.77;8.45;;;19.30;46.20;;;;;;5091609;28;20077;-54
2021/01/20 06:17:03;;;;;;;10.50;9.27;;;19.30;46.20;;;;;;5091702;28;20120;-53
2021/01/20 06:19:33;;;;;;;10.60;8.45;;;19.30;46.20;;;;;;5092682;28;20127;-50
2021/01/20 06:22:01;;;;;;;9.60;8.48;;;19.30;46.30;;;;;;5093041;28;20111;-53
2021/01/20 06:24:31;;;;;;;11.82;9.57;;;19.30;46.30;;;;;;5074612;28;20100;-54
2021/01/20 06:27:29;;;;;;;11.18;9.07;;;19.30;46.30;;;;;;5092728;28;20024;-54
2021/01/20 06:30:23;;;;;;;10.07;8.88;;;19.30;46.30;;;;;;5092882;28;20080;-53
2021/01/20 06:32:50;;;;;;;10.10;8.20;;;19.30;46.30;;;;;;5089252;28;20040;-54
2021/01/20 06:35:17;;;;;;;11.07;8.38;;;19.30;46.20;;;;;;5060691;28;910993;-53
2021/01/20 06:37:47;;;;;;;9.52;8.40;;;19.30;46.90;;;;;;5092381;28;20035;-50
2021/01/20 06:40:22;;;;;;;;;;;19.30;46.30;;;;;;5092375;28;20035;-50
2021/01/20 06:42:49;;;;;;;9.75;8.85;;;19.30;46.40;;;;;;5093406;28;19950;-50
2021/01/20 06:45:17;;;;;;;10.27;8.88;;;19.30;46.10;;;;;;5093041;28;20099;-50
2021/01/20 06:47:59;;;;;;;11.32;8.73;;;19.30;46.20;;;;;;5092177;28;20024;-49
2021/01/20 06:50:49;;;;;;;9.50;8.50;;;19.30;46.30;;;;;;5091748;28;20032;-50
2021/01/20 06:53:15;;;;;;;11.38;9.48;;;19.30;46.30;;;;;;5073263;28;20032;-50
2021/01/20 06:55:41;;;;;;;9.75;8.52;;;19.30;46.30;;;;;;5075823;28;20020;-49
2021/01/20 06:58:24;;;;;;;11.70;8.80;;;19.20;46.30;;;;;;5092862;28;20384;-50
2021/01/20 07:00:59;;;;;;;9.85;8.85;;;19.20;46.40;;;;;;5092239;28;20039;-51
2021/01/20 07:03:53;;;;;;;10.38;8.93;;;19.20;46.40;;;;;;5090832;28;20095;-51
2021/01/20 07:06:37;;;;;;;9.27;8.38;;;19.20;46.50;;;;;;5084161;28;20466;-50
2021/01/20 07:09:09;;;;;;;10.40;8.63;;;19.20;46.50;;;;;;5100040;28;20107;-50
2021/01/20 07:11:56;;;;;;;11.35;8.57;;;19.20;46.50;;;;;;5096403;28;20055;-50
2021/01/20 07:14:27;;;;;;;10.05;9.05;;;19.20;46.60;;;;;;5092178;28;20107;-49
2021/01/20 07:16:57;;;;;;;9.93;8.93;;;19.20;46.50;;;;;;5092834;28;20024;-50
2021/01/20 07:19:25;;;;;;;9.13;8.20;;;19.20;46.50;;;;;;5092042;28;20478;-50
2021/01/20 07:21:53;;;;;;;9.15;8.23;;;19.20;47.20;;;;;;5092354;28;20024;-50
2021/01/20 07:24:19;;;;;;;9.88;8.88;;;19.20;46.60;;;;;;5092422;28;20028;-50
2021/01/20 07:26:47;;;;;;;10.77;7.55;;;19.20;47.20;;;;;;5091025;28;20024;-50
2021/01/20 07:29:17;;;;;;;9.38;7.70;;;19.20;46.60;;;;;;5092567;28;20028;-52
2021/01/20 07:31:50;;;;;;;10.57;8.50;;;19.20;46.70;;;;;;5092292;28;20539;-53
2021/01/20 07:34:19;;;;;;;9.23;8.32;;;19.20;46.70;;;;;;5092333;28;20051;-54
2021/01/20 07:36:45;;;;;;;9.55;8.55;;;19.20;46.70;;;;;;5092175;28;20024;-53
2021/01/20 07:39:26;;;;;;;9.05;8.15;;;19.20;46.70;;;;;;5108032;28;20462;-53
2021/01/20 07:41:57;;;;;;;10.95;8.45;;;19.20;46.70;;;;;;5092347;28;20055;-54
2021/01/20 07:44:24;;;;;;;9.27;8.27;;;19.20;46.70;;;;;;5092063;28;20021;-53
2021/01/20 07:47:00;;;;;;;9.35;7.95;;;19.20;46.70;;;;;;5107999;28;20109;-53
2021/01/20 07:49:27;;;;;;;8.90;8.00;;;19.20;46.70;;;;;;5092005;28;20385;-54
2021/01/20 07:52:03;;;;;;;9.52;7.68;;;19.20;46.70;;;;;;5091859;28;20078;-50
2021/01/20 07:54:37;;;;;;;8.98;7.60;;;19.20;46.80;;;;;;5107967;28;20510;-50
2021/01/20 07:57:05;;;;;;;8.20;7.38;;;19.20;46.80;;;;;;5107444;28;20104;-50
2021/01/20 07:59:34;;;;;;;10.13;8.68;;;19.30;46.80;;;;;;5107614;28;20035;-50
2021/01/20 08:02:07;;;;;;;10.38;7.57;;;19.20;47.00;;;;;;5091555;28;20473;-51
2021/01/20 08:04:33;;;;;;;8.85;7.88;;;19.20;46.80;;;;;;5091844;28;20035;-52
2021/01/20 08:06:59;;;;;;;9.70;8.70;;;19.20;46.80;;;;;;5107465;28;20020;-52
2021/01/20 08:09:39;;;;;;;8.55;7.68;;;19.20;47.40;;;;;;5087731;28;20047;-55
2021/01/20 08:12:08;;;;;;;10.13;7.90;;;19.20;47.00;;;;;;5085918;28;20031;-55
2021/01/20 08:14:37;;;;;;;14.85;8.15;;;19.20;47.00;;;;;;5091486;28;20019;-55
2021/01/20 08:17:04;;;;;;;11.15;7.38;;;19.20;47.10;;;;;;5091092;28;20020;-52
2021/01/20 08:19:34;;;;;;;9.55;8.25;;;19.20;47.10;;;;;;5089986;28;20028;-51
2021/01/20 08:22:06;;;;;;;9.40;8.50;;;19.20;47.10;;;;;;5091484;28;20034;-52
2021/01/20 08:24:33;;;;;;;10.13;8.25;;;19.20;47.20;;;;;;5090395;28;20035;-51
2021/01/20 08:27:00;;;;;;;12.32;8.98;;;19.20;47.20;;;;;;5090871;28;20495;-55
2021/01/20 08:29:27;;;;;;;9.70;7.93;;;19.20;47.40;;;;;;5091451;28;20042;-51
2021/01/20 08:32:11;;;;;;;10.60;8.85;;;19.20;47.40;;;;;;5090043;28;20077;-51
2021/01/20 08:34:38;;;;;;;10.65;8.52;;;19.20;47.40;;;;;;5089455;28;20052;-51
2021/01/20 08:37:08;;;;;;;10.52;8.13;;;19.20;47.50;;;;;;5090787;28;20024;-51
2021/01/20 08:39:50;;;;;;;8.55;7.75;;;19.20;47.60;;;;;;5090816;28;20111;-51
2021/01/20 08:42:18;;;;;;;9.88;8.50;;;19.30;47.50;;;;;;5088407;28;20020;-51
2021/01/20 08:45:09;;;;;;;8.40;7.60;;;19.30;47.60;;;;;;5089394;28;20381;-53
2021/01/20 08:48:06;;;;;;;14.02;8.75;;;19.30;47.70;;;;;;5089346;28;20050;-52
2021/01/20 08:50:34;;;;;;;11.57;8.52;;;19.30;47.70;;;;;;5068788;28;20390;-53
2021/01/20 08:53:05;;;;;;;10.30;8.38;;;19.30;47.60;;;;;;5052029;28;20071;-51
2021/01/20 08:55:41;;;;;;;10.80;8.57;;;19.30;47.80;;;;;;5069171;28;20068;-54
2021/01/20 08:58:28;;;;;;;11.18;9.00;;;19.30;47.80;;;;;;5068689;28;20041;-54
2021/01/20 09:01:06;;;;;;;12.60;9.95;;;19.30;47.90;;;;;;5056961;28;20040;-53
2021/01/20 09:03:37;;;;;;;13.00;10.45;;;19.30;47.80;;;;;;5056003;28;20033;-49
2021/01/20 09:06:05;;;;;;;16.58;14.50;;;19.30;48.00;;;;;;5058954;28;20470;-53
2021/01/20 09:08:36;;;;;;;23.38;20.98;;;19.30;48.20;;;;;;5039073;28;20048;-53
2021/01/20 09:11:02;;;;;;;28.30;25.48;;;19.30;48.60;;;;;;5067222;28;20037;-53
2021/01/20 09:13:28;;;;;;;31.95;27.70;;;19.30;48.60;;;;;;5053280;28;20036;-51
2021/01/20 09:15:55;;;;;;;32.97;29.02;;;19.40;48.70;;;;;;5070099;28;20032;-55
2021/01/20 09:18:22;;;;;;;29.80;26.67;;;19.40;48.90;;;;;;5057861;28;20367;-62
2021/01/20 09:20:49;;;;;;;29.55;26.45;;;19.40;48.80;;;;;;5037772;28;20041;-62
2021/01/20 09:23:15;;;;;;;27.77;22.45;;;19.40;48.70;;;;;;5029135;28;20101;-61
2021/01/20 09:25:42;;;;;;;23.08;17.55;;;19.50;48.90;;;;;;5049897;28;20025;-58
2021/01/20 09:28:08;;;;;;;18.63;14.32;;;19.50;49.60;;;;;;5094235;28;20030;-55
2021/01/20 09:30:34;;;;;;;20.35;14.82;;;19.40;50.00;;;;;;5096472;28;20039;-63
2021/01/20 09:33:01;;;;;;;18.17;15.18;;;19.40;50.20;;;;;;5096271;28;20032;-59
2021/01/20 09:35:27;;;;;;;19.33;14.32;;;19.30;50.70;;;;;;5094655;28;20051;-60
2021/01/20 09:37:54;;;;;;;19.92;14.70;;;19.30;51.20;;;;;;5095135;28;20119;-61
2021/01/20 09:40:24;;;;;;;21.48;14.43;;;19.20;51.50;;;;;;5094349;28;20107;-56
2021/01/20 09:42:51;;;;;;;18.77;14.73;;;19.10;51.80;;;;;;5092060;28;20381;-56
2021/01/20 09:45:22;;;;;;;20.73;14.15;;;19.00;52.30;;;;;;5095097;28;20247;-53
2021/01/20 09:47:48;;;;;;;20.30;14.00;;;18.90;52.50;;;;;;5092895;28;20039;-54
2021/01/20 09:50:16;;;;;;;21.00;14.23;;;18.80;52.60;;;;;;5093672;28;20028;-53
2021/01/20 09:52:47;;;;;;;21.05;15.48;;;18.80;53.10;;;;;;5093418;28;20020;-57
2021/01/20 09:55:15;;;;;;;19.30;14.32;;;18.70;53.30;;;;;;5093465;28;20520;-57
2021/01/20 09:57:41;;;;;;;20.73;15.48;;;18.70;53.60;;;;;;5095021;28;20051;-57
2021/01/20 10:00:08;;;;;;;23.35;15.80;;;18.60;53.80;;;;;;5093690;28;20103;-57
2021/01/20 10:02:40;;;;;;;18.13;12.93;;;18.60;53.70;;;;;;5093475;28;20024;-57
2021/01/20 10:05:08;;;;;;;22.95;14.88;;;18.60;53.70;;;;;;5092707;28;20028;-57
2021/01/20 10:07:35;;;;;;;19.92;14.93;;;18.60;53.60;;;;;;5093583;28;20359;-56
2021/01/20 10:10:01;;;;;;;16.60;14.88;;;18.60;53.80;;;;;;5093515;28;20020;-56
2021/01/20 10:12:27;;;;;;;16.40;13.55;;;18.60;53.80;;;;;;5092197;28;20394;-58
2021/01/20 10:14:53;;;;;;;22.67;15.63;;;18.60;53.90;;;;;;5093430;28;20020;-54
2021/01/20 10:17:19;;;;;;;20.92;15.65;;;18.60;54.20;;;;;;5075319;28;20032;-53
2021/01/20 10:19:45;;;;;;;20.63;14.50;;;18.60;54.30;;;;;;5093782;28;20077;-54
2021/01/20 10:22:11;;;;;;;17.70;14.00;;;18.60;54.40;;;;;;5093952;28;20753;-54
2021/01/20 10:24:37;;;;;;;38.80;30.38;;;18.60;54.50;;;;;;5093719;28;20031;-53
2021/01/20 10:27:03;;;;;;;59.35;51.42;;;18.70;54.60;;;;;;5093584;28;20023;-53
2021/01/20 10:29:29;;;;;;;54.40;47.85;;;18.60;54.50;;;;;;5075391;28;20080;-52
2021/01/20 10:31:55;;;;;;;95.45;84.15;;;18.70;54.70;;;;;;5093690;28;20039;-52
2021/01/20 10:34:22;;;;;;;73.40;61.92;;;18.70;54.80;;;;;;5092260;28;20040;-57
2021/01/20 10:36:48;;;;;;;37.88;32.28;;;18.70;54.60;;;;;;5091428;28;20367;-60
2021/01/20 10:39:14;;;;;;;33.55;29.63;;;18.70;54.60;;;;;;5092795;28;20028;-53
2021/01/20 10:41:40;;;;;;;30.63;25.27;;;18.80;54.60;;;;;;5092195;28;20036;-55
2021/01/20 10:44:07;;;;;;;31.67;24.90;;;18.80;54.80;;;;;;5088288;28;20035;-53
2021/01/20 10:46:33;;;;;;;22.98;20.50;;;18.80;54.80;;;;;;5092549;28;20030;-53
2021/01/20 10:49:02;;;;;;;39.53;34.92;;;18.80;54.70;;;;;;5092417;28;20035;-53
2021/01/20 10:51:31;;;;;;;33.25;28.17;;;18.80;54.40;;;;;;5092419;28;20107;-55
2021/01/20 10:53:58;;;;;;;27.20;23.52;;;18.90;54.70;;;;;;5092619;28;20058;-54
2021/01/20 10:56:23;;;;;;;24.25;21.27;;;18.90;54.80;;;;;;5092576;28;20115;-59
2021/01/20 10:58:49;;;;;;;28.45;22.85;;;18.90;54.60;;;;;;5092357;28;20519;-57
2021/01/20 11:01:15;;;;;;;25.02;22.52;;;19.00;54.50;;;;;;5091691;28;20084;-55
2021/01/20 11:03:44;;;;;;;26.00;22.95;;;19.00;54.30;;;;;;5090431;28;20107;-54
2021/01/20 11:06:10;;;;;;;25.58;22.88;;;19.00;54.00;;;;;;5091045;28;20024;-55
2021/01/20 11:08:36;;;;;;;30.75;27.55;;;19.10;53.80;;;;;;5092380;28;20160;-55
2021/01/20 11:11:02;;;;;;;32.95;29.45;;;19.10;53.60;;;;;;5091063;28;20024;-55
2021/01/20 11:13:31;;;;;;;34.20;30.58;;;19.20;53.50;;;;;;5091970;28;20032;-54
2021/01/20 11:15:57;;;;;;;37.08;33.10;;;19.20;53.20;;;;;;5072196;28;20025;-58
2021/01/20 11:18:23;;;;;;;36.33;31.42;;;19.20;53.10;;;;;;5092137;28;20108;-54
2021/01/20 11:20:49;;;;;;;37.13;33.15;;;19.30;52.90;;;;;;5090662;28;20028;-54
2021/01/20 11:23:18;;;;;;;36.03;32.10;;;19.30;52.80;;;;;;5091708;28;20020;-54
2021/01/20 11:25:52;;;;;;;32.65;26.70;;;19.40;52.70;;;;;;5091899;28;20024;-54
2021/01/20 11:28:18;;;;;;;27.33;24.33;;;19.40;52.70;;;;;;5091911;28;20020;-53
2021/01/20 11:30:45;;;;;;;31.23;26.92;;;19.40;52.60;;;;;;5091671;28;20036;-53
2021/01/20 11:33:11;;;;;;;30.90;26.17;;;19.40;52.50;;;;;;5091971;28;20125;-53
2021/01/20 11:35:38;;;;;;;24.65;22.05;;;19.40;52.40;;;;;;5091549;28;20395;-53
2021/01/20 11:38:05;;;;;;;26.98;24.08;;;19.50;52.50;;;;;;5090470;28;20024;-53
2021/01/20 11:40:33;;;;;;;25.45;22.48;;;19.50;52.30;;;;;;5091604;28;20047;-54
2021/01/20 11:43:00;;;;;;;27.52;23.50;;;19.50;52.20;;;;;;5091651;28;20013;-54
2021/01/20 11:45:34;;;;;;;52.58;47.00;;;19.60;52.20;;;;;;5091736;28;20078;-54
2021/01/20 11:48:01;;;;;;;61.35;54.33;;;19.60;52.30;;;;;;5089969;28;20047;-54
2021/01/20 11:50:27;;;;;;;66.03;57.45;;;19.60;52.40;;;;;;5091635;28;20427;-54
2021/01/20 11:52:55;;;;;;;67.38;56.33;;;19.70;52.50;;;;;;5091732;28;20036;-56
2021/01/20 11:55:22;;;;;;;68.25;60.17;;;19.70;52.50;;;;;;5090122;28;20052;-53
2021/01/20 11:57:48;;;;;;;70.53;62.30;;;19.70;52.30;;;;;;5091725;28;20024;-56
2021/01/20 12:00:15;;;;;;;84.57;73.13;;;19.70;52.20;;;;;;5091060;28;20077;-54
2021/01/20 12:02:41;;;;;;;97.45;85.30;;;19.70;52.20;;;;;;5090840;28;20091;-54
2021/01/20 12:05:09;;;;;;;92.38;82.22;;;19.70;52.10;;;;;;5088564;28;20058;-53
2021/01/20 12:07:39;;;;;;;92.38;80.63;;;19.70;52.00;;;;;;5091370;28;20420;-55
2021/01/20 12:10:07;;;;;;;79.97;71.30;;;19.70;52.10;;;;;;5091212;28;20052;-54
2021/01/20 12:12:33;;;;;;;80.47;71.50;;;19.80;52.30;;;;;;5091417;28;20028;-54
2021/01/20 12:14:59;;;;;;;88.70;76.03;;;19.80;52.10;;;;;;5090968;28;20039;-54
2021/01/20 12:17:25;;;;;;;84.03;75.00;;;19.80;52.10;;;;;;5089927;28;20077;-54
2021/01/20 12:19:51;;;;;;;85.75;72.38;;;19.80;52.00;;;;;;5091069;28;20032;-54
2021/01/20 12:22:17;;;;;;;93.55;83.18;;;19.80;51.90;;;;;;5091058;28;20026;-54
2021/01/20 12:24:44;;;;;;;129.65;113.18;;;19.80;52.10;;;;;;5091169;28;20111;-53
2021/01/20 12:27:11;;;;;;;126.03;108.43;;;19.80;52.30;;;;;;5089894;28;20063;-54
2021/01/20 12:29:36;;;;;;;122.85;104.68;;;19.90;52.30;;;;;;5091058;28;20028;-54
2021/01/20 12:32:04;;;;;;;122.75;108.28;;;19.90;52.50;;;;;;5089998;28;20054;-54
2021/01/20 12:34:30;;;;;;;121.75;104.55;;;19.90;52.40;;;;;;5091133;28;20078;-55
2021/01/20 12:36:56;;;;;;;117.95;102.63;;;19.90;52.40;;;;;;5089985;28;20449;-56
2021/01/20 12:39:22;;;;;;;109.57;97.63;;;19.90;52.30;;;;;;5091429;28;20111;-52
2021/01/20 12:41:48;;;;;;;99.25;88.40;;;19.90;52.40;;;;;;5090214;28;20443;-55
2021/01/20 12:44:14;;;;;;;96.82;83.45;;;19.90;52.50;;;;;;5091009;28;20031;-50
2021/01/20 12:46:40;;;;;;;89.68;79.75;;;19.90;52.60;;;;;;5088944;28;20070;-57